Buckhorn, Canada
Current Conditions -  °F | °C
As of 5:00 AM on Friday 24 Oct 2014 (Local Time) from CYPQ Reporting Station
Clear Clear  
Wind Chill: 39°   Ceiling: Unl
Heat Index: 39°   Visibility: 9mi
Dew Point: 36°   Wind: 3mph
Humidity: 87%   Direction: 310°NW
Pressure: 30"   Gusts: NA
Location:  44.55°N, 78.33°W
Report Text: CYPQ 240900Z AUTO 31003KT 9SM CLR 04/02 A3000 RMK SLP163
Loading
Personal Weather Stations






























Interactive Weather Map
Tropical Storm Tracking
New forecast layout! Learn more

10-Day Weather Forecast

Advertisements
Track Severe Weather on mobile